createdAt,value
2019-01-25T00:02:39.519Z,53.23
2019-01-25T00:07:44.073Z,52.87
2019-01-25T00:12:48.717Z,53.93
2019-01-25T00:17:53.926Z,53.43
2019-01-25T00:22:58.526Z,47.97
2019-01-25T00:28:03.255Z,54.13
2019-01-25T00:33:08.024Z,54.73
2019-01-25T00:38:13.425Z,52.30
2019-01-25T00:43:17.997Z,47.73
2019-01-25T00:48:22.595Z,47.50
2019-01-25T00:53:27.194Z,44.17
2019-01-25T00:58:31.715Z,50.83
2019-01-25T01:03:36.341Z,47.47
2019-01-25T01:08:40.894Z,48.07
2019-01-25T01:13:45.505Z,42.43
2019-01-25T01:18:50.104Z,50.47
2019-01-25T01:23:54.801Z,49.97
2019-01-25T01:28:59.438Z,48.63
2019-01-25T01:34:04.669Z,49.60
2019-01-25T01:39:09.410Z,52.40
2019-01-25T01:44:13.997Z,53.43
2019-01-25T01:49:18.609Z,56.97
2019-01-25T01:54:23.253Z,51.37
2019-01-25T01:59:27.881Z,49.53
2019-01-25T02:04:32.539Z,52.23
2019-01-25T02:09:37.392Z,53.27
2019-01-25T02:14:42.021Z,51.00
2019-01-25T02:19:46.583Z,43.77
2019-01-25T02:24:51.190Z,60.03
2019-01-25T02:29:55.762Z,47.93
2019-01-25T02:35:00.371Z,52.77
2019-01-25T02:40:05.754Z,55.90
2019-01-25T02:45:11.516Z,50.77
2019-01-25T02:50:17.717Z,52.13
2019-01-25T02:55:22.546Z,57.67
2019-01-25T03:00:27.455Z,52.03
2019-01-25T03:05:32.026Z,53.97
2019-01-25T03:10:36.624Z,51.07
2019-01-25T03:15:41.267Z,47.73
2019-01-25T03:20:45.864Z,52.37
2019-01-25T03:25:50.543Z,52.33
2019-01-25T03:30:55.157Z,48.30
2019-01-25T03:36:01.000Z,50.77
2019-01-25T03:41:05.798Z,56.43
2019-01-25T03:46:10.387Z,53.37
2019-01-25T03:51:15.087Z,64.77
2019-01-25T03:56:19.677Z,60.00
2019-01-25T04:01:24.225Z,64.20
2019-01-25T04:06:28.792Z,61.33
2019-01-25T04:11:33.354Z,65.43
2019-01-25T04:16:38.042Z,69.00
2019-01-25T04:21:42.637Z,69.80
2019-01-25T04:26:47.221Z,66.73
2019-01-25T04:31:51.819Z,59.57
2019-01-25T04:36:56.557Z,55.80
2019-01-25T04:42:01.152Z,64.17
2019-01-25T04:47:05.842Z,66.57
2019-01-25T04:52:14.177Z,61.83
2019-01-25T04:57:18.799Z,94.70
2019-01-25T05:02:23.446Z,94.20
2019-01-25T05:07:28.068Z,66.13
2019-01-25T05:12:32.663Z,60.10
2019-01-25T05:17:37.273Z,57.63
2019-01-25T05:22:41.887Z,54.83
2019-01-25T05:27:46.532Z,54.83
2019-01-25T05:32:51.103Z,62.43
2019-01-25T05:37:57.072Z,58.07
2019-01-25T05:43:01.668Z,56.43
2019-01-25T05:48:06.371Z,57.43
2019-01-25T05:53:10.963Z,51.83
2019-01-25T05:58:15.552Z,55.73
2019-01-25T06:03:20.225Z,59.77
2019-01-25T06:08:31.740Z,55.90
2019-01-25T06:13:36.358Z,46.73
2019-01-25T06:18:40.967Z,44.30
2019-01-25T06:23:45.649Z,48.50
2019-01-25T06:28:53.376Z,54.43
2019-01-25T06:33:58.082Z,52.53
2019-01-25T06:39:04.098Z,48.03
2019-01-25T06:44:08.767Z,49.10
2019-01-25T06:49:13.373Z,39.40
2019-01-25T06:54:18.022Z,39.13
2019-01-25T06:59:25.802Z,41.53
2019-01-25T07:04:30.421Z,41.73
2019-01-25T07:09:35.067Z,41.67
2019-01-25T07:14:39.601Z,66.53
2019-01-25T07:19:44.200Z,38.83
2019-01-25T07:24:48.844Z,42.00
2019-01-25T07:29:53.497Z,32.87
2019-01-25T07:34:58.158Z,35.93
2019-01-25T07:40:03.229Z,34.87
2019-01-25T07:45:08.141Z,71.30
2019-01-25T07:50:12.880Z,75.52
2019-01-25T07:55:17.676Z,41.73
2019-01-25T08:00:22.460Z,88.95
2019-01-25T08:05:27.230Z,78.57
2019-01-25T08:10:33.159Z,44.53
2019-01-25T08:15:37.916Z,45.77
2019-01-25T08:20:42.565Z,44.87
2019-01-25T08:25:47.181Z,40.87
2019-01-25T08:30:51.837Z,40.87
2019-01-25T08:35:56.461Z,95.95
2019-01-25T08:41:02.329Z,95.57
2019-01-25T08:46:06.920Z,54.47
2019-01-25T08:51:11.682Z,62.77
2019-01-25T08:56:16.348Z,57.07
2019-01-25T09:01:20.984Z,58.07
2019-01-25T09:06:25.583Z,68.63
2019-01-25T09:11:30.329Z,70.67
2019-01-25T09:16:35.027Z,68.03
2019-01-25T09:21:39.982Z,64.70
2019-01-25T09:26:44.603Z,60.57
2019-01-25T09:31:49.299Z,83.97
2019-01-25T09:36:53.939Z,72.10
2019-01-25T09:41:58.581Z,73.70
2019-01-25T09:47:03.193Z,68.37
2019-01-25T09:52:07.821Z,80.60
2019-01-25T09:57:15.299Z,73.50
2019-01-25T10:02:19.931Z,71.97
2019-01-25T10:07:24.641Z,82.53
2019-01-25T10:12:29.210Z,73.97
2019-01-25T10:17:33.861Z,71.33
2019-01-25T10:22:38.458Z,82.10
2019-01-25T10:27:43.163Z,69.97
2019-01-25T10:32:47.706Z,77.97
2019-01-25T10:37:52.683Z,74.03
2019-01-25T10:42:57.434Z,77.23
2019-01-25T10:48:02.007Z,67.07
2019-01-25T10:53:07.558Z,78.10
2019-01-25T10:58:12.130Z,71.37
2019-01-25T11:03:16.807Z,73.13
2019-01-25T11:08:21.490Z,82.03
2019-01-25T11:13:26.091Z,79.17
2019-01-25T11:18:30.716Z,78.23
2019-01-25T11:23:35.519Z,77.17
2019-01-25T11:28:40.121Z,65.27
2019-01-25T11:33:44.715Z,73.97
2019-01-25T11:38:49.532Z,76.77
2019-01-25T11:43:54.104Z,71.23
2019-01-25T11:48:58.746Z,73.17
2019-01-25T11:54:03.734Z,72.67
2019-01-25T11:59:08.394Z,81.30
2019-01-25T12:04:13.077Z,74.17
2019-01-25T12:09:17.676Z,66.37
2019-01-25T12:14:22.300Z,66.27
2019-01-25T12:19:26.942Z,67.03
2019-01-25T12:24:31.589Z,70.47
2019-01-25T12:29:36.179Z,66.17
2019-01-25T12:34:40.727Z,69.13
2019-01-25T12:39:45.365Z,63.27
2019-01-25T12:44:49.967Z,43.77
2019-01-25T12:49:54.538Z,38.50
2019-01-25T12:54:59.149Z,26.63
2019-01-25T13:00:04.297Z,28.57
2019-01-25T13:05:11.289Z,25.90
2019-01-25T13:10:16.649Z,28.00
2019-01-25T13:15:21.438Z,17.57
2019-01-25T13:20:27.090Z,19.73
2019-01-25T13:25:31.770Z,16.20
2019-01-25T13:30:36.477Z,13.67
2019-01-25T13:35:41.124Z,17.40
2019-01-25T13:40:45.792Z,13.77
2019-01-25T13:45:50.394Z,20.00
2019-01-25T13:50:55.119Z,14.50
2019-01-25T13:55:59.849Z,15.13
2019-01-25T14:01:04.678Z,13.13
2019-01-25T14:06:09.345Z,10.03
2019-01-25T14:11:13.907Z,15.47
2019-01-25T14:16:18.561Z,14.90
2019-01-25T14:21:23.160Z,11.80
2019-01-25T14:26:28.889Z,14.53
2019-01-25T14:31:33.658Z,12.97
2019-01-25T14:36:38.434Z,13.63
2019-01-25T14:41:43.080Z,12.70
2019-01-25T14:46:47.737Z,12.27
2019-01-25T14:51:52.365Z,15.23
2019-01-25T14:56:56.945Z,14.40
2019-01-25T15:02:01.725Z,14.10
2019-01-25T15:07:06.334Z,17.70
2019-01-25T15:12:10.975Z,16.63
2019-01-25T15:17:15.586Z,11.37
2019-01-25T15:22:20.254Z,12.13
2019-01-25T15:27:24.868Z,12.77
2019-01-25T15:32:29.566Z,19.70
2019-01-25T15:37:34.282Z,13.90
2019-01-25T15:42:38.947Z,21.33
2019-01-25T15:47:43.726Z,15.37
2019-01-25T15:52:49.990Z,9.10
2019-01-25T15:57:54.638Z,14.23
2019-01-25T16:02:59.290Z,12.33
2019-01-25T16:08:04.021Z,16.20
2019-01-25T16:13:08.631Z,13.77
2019-01-25T16:18:13.248Z,18.07
2019-01-25T16:23:17.863Z,22.23
2019-01-25T16:28:22.592Z,12.67
2019-01-25T16:33:27.201Z,12.20
2019-01-25T16:38:31.846Z,12.00
2019-01-25T16:43:36.812Z,11.93
2019-01-25T16:48:41.559Z,14.53
2019-01-25T16:53:46.346Z,19.45
2019-01-25T16:58:50.945Z,13.72
2019-01-25T17:03:55.577Z,12.17
2019-01-25T17:09:00.226Z,15.17
2019-01-25T17:14:05.093Z,11.47
2019-01-25T17:19:09.645Z,15.17
2019-01-25T17:24:14.483Z,19.87
2019-01-25T17:29:19.164Z,14.53
2019-01-25T17:34:23.799Z,19.47
2019-01-25T17:39:28.476Z,19.13
2019-01-25T17:44:33.165Z,16.03
2019-01-25T17:49:39.100Z,12.93
2019-01-25T17:54:43.744Z,20.60
2019-01-25T17:59:48.393Z,15.80
2019-01-25T18:04:55.780Z,25.93
2019-01-25T18:10:00.489Z,16.20
2019-01-25T18:15:06.081Z,18.42
2019-01-25T18:20:12.435Z,16.67
2019-01-25T18:25:20.684Z,15.15
2019-01-25T18:30:41.462Z,29.97
2019-01-25T18:35:46.197Z,22.60
2019-01-25T18:40:50.805Z,19.63
2019-01-25T18:45:55.390Z,20.27
2019-01-25T18:51:00.060Z,19.23
2019-01-25T18:56:05.412Z,19.92
2019-01-25T19:01:10.066Z,19.90
2019-01-25T19:06:14.833Z,15.93
2019-01-25T19:11:19.610Z,17.90
2019-01-25T19:16:24.358Z,16.87
2019-01-25T19:21:29.083Z,19.20
2019-01-25T19:26:33.739Z,18.00
2019-01-25T19:31:38.479Z,23.75
2019-01-25T19:36:43.142Z,22.27
2019-01-25T19:41:47.810Z,15.87
2019-01-25T19:46:52.562Z,23.43
2019-01-25T19:51:58.667Z,17.83
2019-01-25T19:57:03.449Z,20.20
2019-01-25T20:02:08.246Z,27.48
2019-01-25T20:07:12.948Z,25.73
2019-01-25T20:12:17.692Z,24.10
2019-01-25T20:17:22.548Z,26.60
2019-01-25T20:22:27.197Z,23.90
2019-01-25T20:27:31.897Z,20.27
2019-01-25T20:32:36.629Z,30.93
2019-01-25T20:37:41.325Z,32.47
2019-01-25T20:42:46.145Z,34.67
2019-01-25T20:47:50.978Z,28.37
2019-01-25T20:52:55.858Z,30.93
2019-01-25T20:58:01.305Z,28.37
2019-01-25T21:03:07.671Z,32.77
2019-01-25T21:08:12.553Z,32.13
2019-01-25T21:13:17.227Z,27.17
2019-01-25T21:18:21.823Z,34.53
2019-01-25T21:23:26.460Z,38.90
2019-01-25T21:28:31.180Z,31.83
2019-01-25T21:33:36.150Z,27.70
2019-01-25T21:38:40.994Z,27.20
2019-01-25T21:43:46.256Z,29.37
2019-01-25T21:48:51.382Z,28.03
2019-01-25T21:53:56.388Z,24.37
2019-01-25T21:59:01.379Z,31.93
2019-01-25T22:04:06.287Z,25.27
2019-01-25T22:09:11.479Z,23.63
2019-01-25T22:14:16.336Z,23.13
2019-01-25T22:19:21.067Z,23.23
2019-01-25T22:24:25.800Z,23.73
2019-01-25T22:29:30.475Z,20.37
2019-01-25T22:34:35.130Z,18.73
2019-01-25T22:39:39.804Z,19.13
2019-01-25T22:44:44.415Z,17.03
2019-01-25T22:49:49.099Z,19.33
2019-01-25T22:54:53.881Z,20.27
2019-01-25T22:59:58.537Z,18.50
2019-01-25T23:05:51.022Z,25.10
2019-01-25T23:10:55.678Z,18.47
2019-01-25T23:16:06.277Z,33.37
2019-01-25T23:21:24.975Z,32.37
2019-01-25T23:26:41.680Z,25.67
2019-01-25T23:31:58.153Z,32.00
2019-01-25T23:37:14.096Z,33.77
2019-01-25T23:42:29.900Z,28.50
2019-01-25T23:47:46.140Z,31.13
2019-01-25T23:53:01.968Z,27.37
2019-01-25T23:58:18.245Z,36.70
